Latest Weather Observations for Fingal

IDT60801

Issued at 5:01 am EST Thursday 3 September 2015 (issued every 30 minutes, with the page automatically refreshed every 10 minutes)

About weather observations | Map of weather stations | Latest weather observations for TAS | Other Formats
Station Details ID: 092012 Name: FINGAL (LEGGE STREET) Lat: -41.64 Lon: 147.97 Height: 237.0 m
Data from the previous 72 hours. | See also: Recent months at Fingal
Date/Time
EST
Temp
°C
App
Temp
°C
Dew
Point
Rel
Hum
%
Delta-T
°C
Wind Press
QNH
hPa
Press
MSL
hPa
Rain
since 9 am
mm
Dir
 
Spd
km/h
Gust
km/h
Spd
kts
Gust
kts
03/05:00am 6.6 5.1 4.8 88 0.8 W 2 6 1 3 - - 0.0
03/04:30am 6.5 4.2 4.8 89 0.8 W 6 9 3 5 - - 0.0
03/04:00am 6.5 5.0 4.8 89 0.8 WSW 2 7 1 4 - - 0.0
03/03:30am 6.3 5.1 4.5 88 0.8 CALM 0 0 0 0 - - 0.0
03/03:00am 6.8 4.5 5.0 88 0.8 W 6 9 3 5 - - 0.0
03/02:30am 7.1 4.7 5.3 88 0.8 SSW 7 9 4 5 - - 0.0
03/02:00am 7.1 4.9 5.1 87 0.9 WSW 6 11 3 6 - - 0.0
03/01:30am 7.4 4.7 5.4 87 0.9 W 9 13 5 7 - - 0.0
03/01:00am 7.6 4.1 5.4 86 1.0 W 13 19 7 10 - - 0.0
03/12:30am 7.9 5.2 5.5 85 1.1 WSW 9 15 5 8 - - 0.0
03/12:00am 7.9 5.2 5.5 85 1.1 W 9 13 5 7 - - 0.0
 
Date/Time
EST
Temp
°C
App
Temp
°C
Dew
Point
Rel
Hum
%
Delta-T
°C
Wind Press
QNH
hPa
Press
MSL
hPa
Rain
since 9 am
mm
Dir
 
Spd
km/h
Gust
km/h
Spd
kts
Gust
kts
02/11:30pm 7.9 5.2 5.5 85 1.1 W 9 13 5 7 - - 0.0
02/11:00pm 7.4 5.9 5.2 86 1.0 WSW 2 7 1 4 - - 0.0
02/10:30pm 7.5 5.3 5.3 86 1.0 WSW 6 9 3 5 - - 0.0
02/10:00pm 7.2 4.9 5.0 86 1.0 WSW 6 9 3 5 - - 0.0
02/09:30pm 7.1 4.6 4.6 84 1.1 WSW 7 11 4 6 - - 0.0
02/09:00pm 7.3 4.4 4.8 84 1.1 SW 9 13 5 7 - - 0.0
02/08:30pm 7.5 5.0 4.8 83 1.2 SW 7 9 4 5 - - 0.0
02/08:00pm 8.2 5.9 5.0 80 1.4 WSW 6 7 3 4 - - 0.0
02/07:30pm 9.5 7.2 5.5 76 1.8 SW 7 9 4 5 - - 0.0
02/07:00pm 9.4 6.9 5.0 74 2.0 W 7 9 4 5 - - 0.0
02/06:30pm 10.7 7.6 5.5 70 2.4 W 11 15 6 8 - - 0.0
02/06:00pm 11.4 8.2 5.3 66 2.8 WNW 11 17 6 9 - - 0.0
02/05:30pm 12.7 9.6 5.4 61 3.4 W 11 17 6 9 - - 0.0
02/05:00pm 13.1 10.3 5.0 58 3.8 WNW 9 17 5 9 - - 0.0
02/04:30pm 14.8 10.9 3.6 47 5.2 WNW 13 17 7 9 - - 0.0
02/04:00pm 15.1 11.8 2.6 43 5.7 WSW 9 13 5 7 - - 0.0
02/03:30pm 15.5 12.6 1.6 39 6.2 SW 6 11 3 6 - - 0.0
02/03:00pm 15.8 12.4 1.9 39 6.2 WNW 9 13 5 7 - - 0.0
02/02:30pm 15.5 11.8 0.1 35 6.6 W 9 15 5 8 - - 0.0
02/02:00pm 15.1 11.1 0.5 37 6.3 NW 11 19 6 10 - - 0.0
02/01:30pm 15.2 11.7 1.0 38 6.2 WNW 9 17 5 9 - - 0.0
02/01:00pm 13.7 9.7 2.9 48 4.9 W 13 17 7 9 - - 0.0
02/12:30pm 12.9 8.8 2.5 49 4.6 W 13 20 7 11 - - 0.0
02/12:00pm 12.5 8.2 3.5 54 4.1 W 15 20 8 11 - - 0.0
02/11:30am 11.2 7.7 3.5 59 3.4 W 11 19 6 10 - - 0.0
02/11:00am 10.1 5.5 3.8 65 2.8 WNW 17 22 9 12 - - 0.0
02/10:30am 9.0 5.3 4.4 73 2.1 WNW 13 19 7 10 - - 0.0
02/10:00am 7.5 3.7 3.7 77 1.6 W 13 20 7 11 - - 0.0
02/09:30am 6.0 2.5 3.5 84 1.1 W 11 15 6 8 - - 0.0
02/09:00am 5.2 2.1 3.5 89 0.7 WSW 9 13 5 7 - - 0.0
02/08:30am 4.8 1.4 3.8 93 0.4 WNW 11 15 6 8 - - 0.0
02/08:00am 4.2 2.0 3.3 94 0.4 WSW 4 7 2 4 - - 0.0
02/07:30am 3.9 2.4 3.2 95 0.3 CALM 0 0 0 0 - - 0.0
02/07:00am 3.6 2.0 2.7 94 0.4 CALM 0 0 0 0 - - 0.0
02/06:30am 3.3 1.7 2.4 94 0.4 CALM 0 0 0 0 - - 0.0
02/06:00am 3.2 1.6 2.3 94 0.4 CALM 0 0 0 0 - - 0.0
02/05:30am 2.9 1.2 2.0 94 0.4 CALM 0 0 0 0 - - 0.0
02/05:00am 2.4 0.6 1.5 94 0.4 CALM 0 0 0 0 - - 0.0
02/04:30am 1.7 -0.2 0.7 93 0.4 CALM 0 0 0 0 - - 0.0
02/04:00am 1.9 -0.3 0.9 93 0.4 S 2 6 1 3 - - 0.0
02/03:30am 1.5 -1.6 0.2 91 0.5 WSW 6 7 3 4 - - 0.0
02/03:00am 1.9 0.0 0.4 90 0.6 CALM 0 0 0 0 - - 0.0
02/02:30am 2.5 -0.4 1.2 91 0.5 WSW 6 7 3 4 - - 0.0
02/02:00am 2.8 0.3 1.3 90 0.6 SW 4 9 2 5 - - 0.0
02/01:30am 3.6 1.9 2.0 89 0.6 CALM 0 0 0 0 - - 0.0
02/01:00am 4.6 3.1 2.8 88 0.7 CALM 0 6 0 3 - - 0.0
02/12:30am 6.1 3.5 4.1 87 0.9 SSE 7 9 4 5 - - 0.0
02/12:00am 6.7 5.5 4.5 86 1.0 CALM 0 6 0 3 - - 0.0
 
Date/Time
EST
Temp
°C
App
Temp
°C
Dew
Point
Rel
Hum
%
Delta-T
°C
Wind Press
QNH
hPa
Press
MSL
hPa
Rain
since 9 am
mm
Dir
 
Spd
km/h
Gust
km/h
Spd
kts
Gust
kts
01/11:30pm 7.6 6.5 5.1 84 1.1 CALM 0 0 0 0 - - 0.0
01/11:00pm 8.0 6.1 5.1 82 1.3 ESE 4 6 2 3 - - 0.0
01/10:30pm 8.5 6.7 5.4 81 1.4 ESE 4 7 2 4 - - 0.0
01/10:00pm 8.7 6.5 5.4 80 1.5 ENE 6 7 3 4 - - 0.0
01/09:30pm 8.8 7.8 5.4 79 1.6 CALM 0 7 0 4 - - 0.0
01/09:00pm 8.9 7.5 5.5 79 1.6 E 2 6 1 3 - - 0.0
01/08:30pm 8.9 6.7 5.5 79 1.6 NE 6 7 3 4 - - 0.0
01/08:00pm 8.9 6.7 5.5 79 1.6 NNW 6 9 3 5 - - 0.0
01/07:30pm 9.0 6.7 5.6 79 1.6 NNE 7 9 4 5 - - 0.0
01/07:00pm 9.2 6.9 5.8 79 1.6 NE 7 11 4 6 - - 0.0
01/06:30pm 9.2 6.9 5.6 78 1.7 NNE 7 11 4 6 - - 0.0
01/06:00pm 9.4 6.7 5.6 77 1.8 NNE 9 13 5 7 - - 0.0
01/05:30pm 9.9 7.2 5.5 74 2.0 NNE 9 13 5 7 - - 0.0
01/05:00pm 10.6 7.1 5.6 71 2.3 NE 13 19 7 10 - - 0.0
01/04:30pm 11.5 7.7 5.6 67 2.8 NE 15 20 8 11 - - 0.0
01/04:00pm 12.1 7.8 5.3 63 3.2 NE 17 24 9 13 - - 0.0
01/03:30pm 13.9 11.7 3.4 49 4.8 NNE 4 9 2 5 - - 0.0
01/03:00pm 13.6 10.9 3.7 51 4.5 SE 7 9 4 5 - - 0.0
01/02:30pm 13.6 11.1 4.5 54 4.2 ENE 7 11 4 6 - - 0.0
01/02:00pm 13.2 10.5 3.6 52 4.4 E 7 13 4 7 - - 0.0
01/01:30pm 12.8 9.1 4.3 56 3.9 SE 13 20 7 11 - - 0.0
01/01:00pm 14.2 11.5 5.6 56 4.1 SE 9 17 5 9 - - 0.0
01/12:30pm 12.6 9.6 4.3 57 3.8 SE 9 15 5 8 - - 0.0
01/12:00pm 11.4 8.9 3.9 60 3.4 ESE 6 11 3 6 - - 0.0
01/11:30am 11.9 9.0 4.9 62 3.2 ESE 9 15 5 8 - - 0.0
01/11:00am 10.9 8.0 4.4 64 3.0 SSE 9 15 5 8 - - 0.0
01/10:30am 10.4 6.8 4.8 68 2.6 WNW 13 17 7 9 - - 0.0
01/10:00am 9.5 5.4 4.3 70 2.3 W 15 22 8 12 - - 0.0
01/09:30am 8.9 4.4 4.3 73 2.1 W 17 26 9 14 - - 0.0
01/09:00am 8.2 3.7 4.0 75 1.8 WSW 17 26 9 14 - - 0.0
01/08:30am 7.0 2.3 3.4 78 1.5 W 17 28 9 15 - - 0.0
01/08:00am 5.3 2.2 3.5 88 0.8 WNW 9 15 5 8 - - 0.0
01/07:30am 3.8 0.0 1.8 87 0.8 WNW 11 17 6 9 - - 0.0
01/07:00am 5.3 1.7 3.0 85 1.0 SW 11 17 6 9 - - 0.0
01/06:30am 4.4 1.1 2.6 88 0.7 W 9 13 5 7 - - 0.0
01/06:00am 4.4 0.7 2.6 88 0.7 WSW 11 20 6 11 - - 0.0
01/05:30am 4.6 1.3 2.6 87 0.8 WSW 9 15 5 8 - - 0.0
01/05:00am 4.6 0.6 2.6 87 0.8 WSW 13 20 7 11 - - 0.0
01/04:30am 5.4 1.8 3.1 85 1.0 W 11 19 6 10 - - 0.0
01/04:00am 5.6 2.0 2.9 83 1.1 WSW 11 17 6 9 - - 0.0
01/03:30am 5.9 2.7 3.1 82 1.2 SW 9 15 5 8 - - 0.0
01/03:00am 6.5 2.6 3.5 81 1.3 WSW 13 20 7 11 - - 0.0
01/02:30am 6.8 2.9 3.6 80 1.4 WSW 13 22 7 12 - - 0.0
01/02:00am 7.2 3.4 4.0 80 1.4 WSW 13 22 7 12 - - 0.0
01/01:30am 7.5 4.5 4.1 79 1.5 SW 9 17 5 9 - - 0.0
01/01:00am 7.5 4.6 4.5 81 1.3 WSW 9 17 5 9 - - 0.0
01/12:30am 7.6 4.3 4.7 82 1.3 W 11 19 6 10 - - 0.0
01/12:00am 7.5 4.3 5.1 85 1.1 W 11 17 6 9 - - 0.0
 
Date/Time
EST
Temp
°C
App
Temp
°C
Dew
Point
Rel
Hum
%
Delta-T
°C
Wind Press
QNH
hPa
Press
MSL
hPa
Rain
since 9 am
mm
Dir
 
Spd
km/h
Gust
km/h
Spd
kts
Gust
kts
31/11:30pm 7.4 3.8 5.2 86 1.0 WSW 13 19 7 10 - - 0.0
31/11:00pm 7.6 4.8 5.1 84 1.1 WSW 9 15 5 8 - - 0.0
31/10:30pm 7.5 4.7 5.3 86 1.0 W 9 19 5 10 - - 0.0
31/10:00pm 7.6 4.5 5.4 86 1.0 WSW 11 20 6 11 - - 0.0
31/09:30pm 7.7 5.3 5.3 85 1.1 WSW 7 15 4 8 - - 0.0
31/09:00pm 7.8 4.3 5.3 84 1.1 WSW 13 20 7 11 - - 0.0
31/08:30pm 8.0 5.7 5.6 85 1.1 SW 7 13 4 7 - - 0.0
31/08:00pm 8.1 5.5 6.1 87 0.9 WSW 9 13 5 7 - - 0.0
31/07:30pm 8.2 6.0 6.3 88 0.9 W 7 13 4 7 - - 0.0
31/07:00pm 8.1 5.5 6.2 88 0.9 WSW 9 15 5 8 - - 0.0
31/06:30pm 8.5 6.3 6.1 85 1.1 WSW 7 15 4 8 - - 0.0
31/06:00pm 8.9 6.8 5.8 81 1.4 SW 6 9 3 5 - - 0.0
31/05:30pm 9.6 7.1 5.0 73 2.1 SSW 7 15 4 8 - - 0.0
31/05:00pm 9.9 7.4 4.9 71 2.3 S 7 13 4 7 - - 0.0
31/04:30pm 10.1 7.2 4.9 70 2.4 SSE 9 19 5 10 - - 0.0
31/04:00pm 10.6 7.7 4.7 67 2.7 SSE 9 11 5 6 - - 0.0
31/03:30pm 10.7 6.5 3.7 62 3.1 S 15 26 8 14 - - 0.0
31/03:00pm 11.0 7.2 3.8 61 3.2 SSW 13 24 7 13 - - 0.0
31/02:30pm 11.8 8.8 4.3 60 3.4 SW 9 20 5 11 - - 0.0
31/02:00pm 11.6 8.2 4.1 60 3.4 SW 11 22 6 12 - - 0.0
31/01:30pm 11.8 7.7 4.3 60 3.4 S 15 24 8 13 - - 0.0
31/01:00pm 11.3 7.4 3.6 59 3.5 SSE 13 26 7 14 - - 0.0
31/12:30pm 10.9 7.7 3.2 59 3.4 SSE 9 22 5 12 - - 0.0
31/12:00pm 10.5 6.9 3.1 60 3.3 SSW 11 17 6 9 - - 0.0
31/11:30am 10.1 5.6 4.0 66 2.7 SSW 17 28 9 15 - - 0.0
31/11:00am 9.7 6.5 3.2 64 2.8 SSW 9 19 5 10 - - 0.0
31/10:30am 8.5 5.1 3.9 73 2.0 SW 11 20 6 11 - - 0.0
31/10:00am 8.3 4.0 3.2 70 2.2 SSW 15 26 8 14 - - 0.0
31/09:30am 8.4 4.0 2.8 68 2.4 W 15 30 8 16 - - 0.0
31/09:00am 8.0 3.9 2.5 68 2.3 WSW 13 24 7 13 - - 0.0
31/08:30am 7.0 3.4 3.1 76 1.7 WSW 11 20 6 11 - - 0.0
31/08:00am 6.4 2.8 3.0 79 1.4 W 11 19 6 10 - - 0.0
31/07:30am 6.1 2.5 2.9 80 1.3 WSW 11 22 6 12 - - 0.0
31/07:00am 5.7 1.7 2.9 82 1.2 WSW 13 19 7 10 - - 0.0
31/06:30am 5.6 1.6 3.1 84 1.1 WSW 13 22 7 12 - - 0.0
31/06:00am 5.9 1.9 2.9 81 1.3 WSW 13 22 7 12 - - 0.0
31/05:30am 5.9 1.9 2.9 81 1.3 WSW 13 20 7 11 - - 0.0

Other Formats:

Comma delimited format used in spreadsheet applications
http://www.bom.gov.au/fwo/IDT60801/IDT60801.95974.axf

JavaScript Object Notation format (JSON) in row-major order
http://www.bom.gov.au/fwo/IDT60801/IDT60801.95974.json